Latest Weather Observations for Newcastle Nobbys

IDN60801

Issued at 6:05 pm EDT Monday 2 March 2015 (issued every 30 minutes, with the page automatically refreshed every 10 minutes)

About weather observations | Map of weather stations | Latest weather observations for NSW | Other Formats
Station Details ID: 061055 Name: NEWCASTLE NOBBYS SIGNAL STATION AWS Lat: -32.92 Lon: 151.80 Height: 33.0 m
Data from the previous 72 hours. | See also: Recent months at Newcastle Nobbys
Date/Time
EDT
Temp
°C
App
Temp
°C
Dew
Point
Rel
Hum
%
Delta-T
°C
Wind Press
QNH
hPa
Press
MSL
hPa
Rain
since 9 am
mm
Dir
 
Spd
km/h
Gust
km/h
Spd
kts
Gust
kts
02/06:00pm 22.6 20.3 14.2 59 4.9 ESE 19 20 10 11 - - 0.0
02/05:30pm 22.9 20.5 13.9 57 5.3 ESE 19 22 10 12 - - 0.0
02/05:00pm 23.0 20.7 14.0 57 5.3 ESE 19 22 10 12 - - 0.0
02/04:30pm 22.9 20.5 13.9 57 5.3 ESE 19 22 10 12 - - 0.0
02/04:00pm 23.1 20.9 14.9 60 4.9 SE 20 22 11 12 - - 0.0
02/03:30pm 22.9 20.7 14.5 59 5.0 SE 19 22 10 12 - - 0.0
02/03:00pm 22.9 20.6 14.7 60 4.9 SE 20 24 11 13 - - 0.0
02/02:30pm 22.8 20.7 14.6 60 4.8 SE 19 20 10 11 - - 0.0
02/02:00pm 22.9 20.3 15.0 61 4.7 SE 22 26 12 14 - - 0.0
02/01:30pm 22.4 21.2 17.5 74 3.0 SSW 20 28 11 15 - - 0.0
02/01:00pm 22.2 19.9 17.6 75 2.8 SSW 26 33 14 18 - - 0.0
02/12:30pm 22.1 19.5 17.7 76 2.7 SSW 28 35 15 19 - - 0.0
02/12:00pm 21.8 19.2 17.8 78 2.5 SSW 28 37 15 20 - - 0.0
02/11:30am 21.4 18.9 17.0 76 2.7 SSW 26 33 14 18 - - 0.0
02/11:00am 21.1 18.4 16.5 75 2.8 SSW 26 39 14 21 - - 0.0
02/10:30am 20.9 18.2 16.5 76 2.7 SSW 26 33 14 18 - - 0.0
02/10:00am 20.8 18.8 16.4 76 2.7 SSW 22 28 12 15 - - 0.0
02/09:30am 20.2 18.8 16.6 80 2.2 SW 19 24 10 13 - - 0.0
02/09:00am 20.7 17.8 16.1 75 2.8 SSW 26 33 14 18 - - 6.6
02/08:30am 21.7 18.8 16.2 71 3.3 S 26 35 14 19 - - 6.6
02/08:00am 22.4 19.8 16.0 67 3.9 S 24 28 13 15 - - 6.6
02/07:30am 22.1 20.5 16.4 70 3.5 S 20 24 11 13 - - 6.6
02/07:00am 22.0 18.9 15.6 67 3.8 S 26 30 14 16 - - 6.6
02/06:30am 22.1 17.5 15.2 65 4.1 S 33 37 18 20 - - 6.6
02/06:00am 22.2 16.9 14.3 61 4.6 S 35 43 19 23 - - 6.6
02/05:30am 22.2 17.5 14.3 61 4.6 SSE 32 35 17 19 - - 6.6
02/05:00am 22.0 18.3 15.1 65 4.1 S 28 33 15 18 - - 6.6
02/04:30am 21.5 16.3 16.5 73 3.0 SSE 39 46 21 25 - - 6.6
02/04:00am 21.6 17.6 16.8 74 2.9 SSE 33 39 18 21 - - 6.6
02/03:30am 21.1 17.2 16.9 77 2.6 S 33 43 18 23 - - 6.6
02/03:00am 20.5 15.5 17.1 81 2.1 S 39 46 21 25 - - 6.6
02/02:30am 21.1 16.4 16.9 77 2.6 S 37 52 20 28 - - 6.6
02/02:00am 21.2 16.2 17.0 77 2.6 S 39 50 21 27 - - 6.6
02/01:30am 21.4 15.6 17.0 76 2.7 S 43 57 23 31 - - 6.6
02/01:00am 22.0 16.2 17.4 75 2.8 S 44 57 24 31 - - 6.6
02/12:30am 22.4 15.7 17.1 72 3.3 S 48 59 26 32 - - 6.6
02/12:00am 21.8 16.0 18.2 80 2.2 S 46 56 25 30 - - 6.6
 
Date/Time
EDT
Temp
°C
App
Temp
°C
Dew
Point
Rel
Hum
%
Delta-T
°C
Wind Press
QNH
hPa
Press
MSL
hPa
Rain
since 9 am
mm
Dir
 
Spd
km/h
Gust
km/h
Spd
kts
Gust
kts
01/11:30pm 22.2 15.6 18.2 78 2.5 S 50 59 27 32 - - 6.6
01/11:00pm 22.3 15.4 18.3 78 2.5 S 52 63 28 34 - - 6.6
01/10:30pm 22.4 16.2 19.2 82 2.0 S 50 65 27 35 - - 6.4
01/10:00pm 22.1 17.4 20.7 92 0.9 S 46 56 25 30 - - 6.4
01/09:37pm 22.9 20.5 21.0 89 1.2 S 35 54 19 29 - - 6.0
01/09:30pm 23.0 21.1 20.9 88 1.4 S 32 37 17 20 - - 6.0
01/09:00pm 22.8 21.5 20.7 88 1.4 S 28 33 15 18 - - 6.0
01/08:30pm 22.4 21.3 21.0 92 0.9 SSE 28 33 15 18 - - 6.0
01/08:00pm 22.7 21.7 21.9 95 0.5 S 30 35 16 19 - - 6.0
01/07:30pm 21.7 19.6 21.0 96 0.5 ESE 33 37 18 20 - - 6.0
01/07:18pm 21.4 18.0 20.7 96 0.5 SSE 39 46 21 25 - - 5.6
01/07:00pm 21.4 16.1 20.9 97 0.3 S 50 61 27 33 - - 5.0
01/06:31pm 22.8 17.3 21.4 92 0.9 SSW 52 72 28 39 - - 1.0
01/06:30pm 22.9 17.9 21.5 92 0.9 SSW 50 65 27 35 - - 1.0
01/06:09pm 24.8 23.0 19.6 73 3.4 SE 28 69 15 37 - - 0.4
01/06:06pm 26.5 27.0 20.8 71 3.8 E 19 52 10 28 - - 0.4
01/06:00pm 26.7 28.1 20.3 68 4.2 NE 13 17 7 9 - - 0.4
01/05:30pm 26.8 26.2 20.4 68 4.2 NE 24 33 13 18 - - 0.2
01/05:00pm 27.5 26.0 20.3 65 4.7 ENE 28 35 15 19 - - 0.2
01/04:30pm 26.4 25.3 20.3 69 4.0 NE 26 35 14 19 - - 0.2
01/04:00pm 25.9 24.8 20.2 71 3.7 ENE 26 32 14 17 - - 0.0
01/03:30pm 25.9 24.5 20.5 72 3.5 ENE 28 33 15 18 - - 0.0
01/03:00pm 26.4 25.9 21.4 74 3.3 ENE 26 32 14 17 - - 0.0
01/02:30pm 26.7 27.0 21.5 73 3.5 ENE 22 26 12 14 - - 0.0
01/02:00pm 27.3 27.6 21.6 71 3.8 ENE 22 30 12 16 - - 0.0
01/01:30pm 29.3 30.7 21.8 64 5.1 ENE 17 24 9 13 - - 0.0
01/01:00pm 31.2 31.9 20.5 53 7.1 NNW 17 24 9 13 - - 0.0
01/12:30pm 32.5 31.7 20.1 48 8.2 NNW 24 32 13 17 - - 0.0
01/12:00pm 30.6 31.2 21.1 57 6.4 N 19 30 10 16 - - 0.0
01/11:30am 29.9 30.3 21.0 59 5.9 NNW 20 30 11 16 - - 0.0
01/11:00am 28.5 30.5 21.5 66 4.7 N 13 20 7 11 - - 0.0
01/10:30am 27.1 28.8 20.9 69 4.1 N 13 24 7 13 - - 0.0
01/10:00am 25.6 27.4 21.1 76 3.0 N 13 19 7 10 - - 0.0
01/09:30am 24.0 24.9 20.9 83 2.0 NNW 17 22 9 12 - - 0.0
01/09:00am 22.8 24.9 20.9 89 1.2 N 11 13 6 7 - - 0.0
01/08:30am 22.0 23.5 20.6 92 0.9 N 13 15 7 8 - - 0.0
01/08:00am 21.4 22.8 20.4 94 0.6 NNW 13 17 7 9 - - 0.0
01/07:30am 20.9 23.0 20.1 95 0.5 N 9 11 5 6 - - 0.0
01/07:00am 21.0 23.5 20.2 95 0.5 N 7 9 4 5 - - 0.0
01/06:30am 21.3 23.5 20.3 94 0.6 NNW 9 11 5 6 - - 0.0
01/06:00am 21.8 23.8 20.8 94 0.7 N 11 13 6 7 - - 0.0
01/05:30am 21.6 24.3 20.6 94 0.6 NNE 7 9 4 5 - - 0.0
01/05:00am 21.5 23.7 20.3 93 0.8 NNE 9 9 5 5 - - 0.0
01/04:30am 21.9 24.6 20.7 93 0.8 N 7 9 4 5 - - 0.0
01/04:00am 22.2 25.3 21.0 93 0.8 N 6 7 3 4 - - 0.0
01/03:30am 22.3 25.1 20.9 92 0.9 NNE 7 9 4 5 - - 0.0
01/03:00am 22.4 24.9 21.0 92 0.9 NNE 9 11 5 6 - - 0.0
01/02:30am 22.3 25.1 20.8 91 1.0 NNE 7 11 4 6 - - 0.0
01/02:00am 22.4 25.2 20.9 91 1.0 NNE 7 9 4 5 - - 0.0
01/01:30am 22.4 24.5 21.0 92 0.9 NNE 11 13 6 7 - - 0.0
01/01:00am 22.5 25.0 21.0 91 1.0 NNE 9 11 5 6 - - 0.0
01/12:30am 22.8 25.5 21.3 91 1.0 NNE 9 11 5 6 - - 0.0
01/12:00am 23.0 25.3 21.3 90 1.1 NNE 11 17 6 9 - - 0.0
 
Date/Time
EDT
Temp
°C
App
Temp
°C
Dew
Point
Rel
Hum
%
Delta-T
°C
Wind Press
QNH
hPa
Press
MSL
hPa
Rain
since 9 am
mm
Dir
 
Spd
km/h
Gust
km/h
Spd
kts
Gust
kts
28/11:30pm 23.1 24.6 21.2 89 1.2 NNE 15 17 8 9 - - 0.0
28/11:00pm 23.4 24.9 21.3 88 1.4 NNE 15 19 8 10 - - 0.0
28/10:30pm 23.4 25.2 21.1 87 1.5 NE 13 17 7 9 - - 0.0
28/10:00pm 23.5 24.6 21.2 87 1.5 NE 17 20 9 11 - - 0.0
28/09:30pm 23.6 24.8 21.5 88 1.4 NE 17 20 9 11 - - 0.0
28/09:00pm 23.6 25.1 21.3 87 1.5 NE 15 20 8 11 - - 0.0
28/08:30pm 23.6 24.7 21.3 87 1.5 NE 17 20 9 11 - - 0.0
28/08:00pm 23.6 24.6 21.7 89 1.3 NE 19 24 10 13 - - 0.0
28/07:30pm 23.6 24.4 21.7 89 1.3 ENE 20 24 11 13 - - 0.0
28/07:00pm 23.9 24.2 21.6 87 1.5 ENE 22 28 12 15 - - 0.0
28/06:30pm 24.1 24.1 21.6 86 1.7 ENE 24 28 13 15 - - 0.0
28/06:00pm 24.3 24.2 21.4 84 1.9 ENE 24 28 13 15 - - 0.0
28/05:30pm 24.5 24.4 21.4 83 2.0 ENE 24 28 13 15 - - 0.0
28/05:00pm 24.7 24.8 21.2 81 2.3 E 22 26 12 14 - - 0.0
28/04:30pm 24.3 25.0 21.2 83 2.0 E 19 24 10 13 - - 0.0
28/04:00pm 24.4 25.0 21.1 82 2.2 E 19 20 10 11 - - 0.0
28/03:30pm 24.8 25.4 21.1 80 2.4 E 19 20 10 11 - - 0.0
28/03:00pm 25.4 26.9 21.3 78 2.7 ESE 15 19 8 10 - - 0.0
28/02:30pm 25.1 25.9 20.6 76 2.9 E 17 20 9 11 - - 0.0
28/02:00pm 25.2 25.8 20.2 74 3.3 ESE 17 20 9 11 - - 0.0
28/01:30pm 24.9 26.7 20.4 76 2.9 ESE 11 13 6 7 - - 0.0
28/01:00pm 24.8 26.7 20.5 77 2.8 SE 11 13 6 7 - - 0.0
28/12:30pm 24.8 27.9 19.4 72 3.5 ENE 2 4 1 2 - - 0.0
28/12:00pm 25.2 27.4 19.6 71 3.6 E 7 9 4 5 - - 0.0
28/11:30am 24.8 27.5 20.3 76 2.9 NNE 6 7 3 4 - - 0.0
28/11:00am 23.5 25.8 18.6 74 3.1 N 4 6 2 3 - - 0.0
28/10:30am 23.1 25.3 19.7 81 2.2 N 7 9 4 5 - - 0.0
28/10:00am 21.9 23.3 19.6 87 1.5 NNW 11 15 6 8 - - 0.0
28/09:30am 21.7 23.0 19.4 87 1.5 N 11 13 6 7 - - 0.0
28/09:00am 21.8 24.2 19.7 88 1.3 NW 6 9 3 5 - - 0.2
28/08:30am 21.4 23.2 19.5 89 1.2 N 9 9 5 5 - - 0.2
28/08:00am 21.3 23.2 19.8 91 1.0 NNW 9 9 5 5 - - 0.2
28/07:30am 21.1 23.9 19.7 92 0.9 NNW 4 6 2 3 - - 0.2
28/07:00am 20.9 23.7 19.7 93 0.8 WNW 4 6 2 3 - - 0.2
28/06:30am 21.1 23.9 19.7 92 0.9 NNW 4 6 2 3 - - 0.2
28/06:00am 21.4 24.3 19.9 91 1.0 E 4 6 2 3 - - 0.2
28/05:30am 21.4 24.3 19.9 91 1.0 ESE 4 4 2 2 - - 0.2
28/05:00am 21.3 23.7 19.6 90 1.1 ENE 6 6 3 3 - - 0.2
28/04:30am 21.5 23.9 19.6 89 1.2 ENE 6 7 3 4 - - 0.2
28/04:00am 21.6 23.8 19.5 88 1.3 ENE 7 9 4 5 - - 0.2
28/03:30am 21.7 23.4 19.4 87 1.5 ENE 9 11 5 6 - - 0.2
28/03:00am 21.8 24.0 19.5 87 1.5 NE 7 9 4 5 - - 0.2
28/02:30am 21.8 23.6 19.5 87 1.5 NE 9 11 5 6 - - 0.2
28/02:00am 21.8 24.1 19.5 87 1.5 NE 6 7 3 4 - - 0.2
28/01:30am 21.9 24.1 19.6 87 1.5 ENE 7 9 4 5 - - 0.2
28/01:00am 22.1 24.3 19.5 85 1.7 NE 7 9 4 5 - - 0.2
28/12:30am 22.0 25.3 19.2 84 1.8 CALM 0 0 0 0 - - 0.2
28/12:00am 22.1 25.5 19.3 84 1.8 CALM 0 0 0 0 - - 0.2
 
Date/Time
EDT
Temp
°C
App
Temp
°C
Dew
Point
Rel
Hum
%
Delta-T
°C
Wind Press
QNH
hPa
Press
MSL
hPa
Rain
since 9 am
mm
Dir
 
Spd
km/h
Gust
km/h
Spd
kts
Gust
kts
27/11:30pm 22.3 25.0 19.5 84 1.8 NE 4 6 2 3 - - 0.2
27/11:00pm 22.6 25.0 19.6 83 1.9 NNE 6 7 3 4 - - 0.2
27/10:30pm 22.7 24.5 19.5 82 2.0 NE 9 11 5 6 - - 0.2
27/10:00pm 22.6 24.3 19.4 82 2.0 NE 9 13 5 7 - - 0.2
27/09:30pm 22.8 24.7 19.8 83 1.9 NE 9 13 5 7 - - 0.2
27/09:00pm 22.7 24.1 19.5 82 2.0 ENE 11 15 6 8 - - 0.2
27/08:30pm 22.8 23.8 19.4 81 2.2 E 13 15 7 8 - - 0.2
27/08:00pm 22.9 24.0 19.7 82 2.1 E 13 15 7 8 - - 0.2
27/07:30pm 23.0 24.4 20.3 85 1.7 E 13 15 7 8 - - 0.2
27/07:00pm 23.4 24.8 20.3 83 2.0 ESE 13 15 7 8 - - 0.2
27/06:30pm 23.8 24.8 20.3 81 2.3 ESE 15 17 8 9 - - 0.2

Other Formats:

Comma delimited format used in spreadsheet applications
http://www.bom.gov.au/fwo/IDN60801/IDN60801.94774.axf

JavaScript Object Notation format (JSON) in row-major order
http://www.bom.gov.au/fwo/IDN60801/IDN60801.94774.json